LIEO/OLB METAR and TAF weather

Enter ICAO airport designator
Station Type Date Time Source
LIEO METAR 2021/04/17 01:20 UTC NOAA

LIEO 170120Z 19002KT CAVOK 10/10 Q1013


Station Type Date Time Source
LIEO Decoded METAR 2021/04/17 01:20 UTC NOAA

Olbia / Costa Smeralda, Italy (LIEO) 40-54N 009-31E 13M
Apr 16, 2021 - 09:20 PM EDT / 2021.04.17 0120 UTC
Wind: from the S (190 degrees) at 2 MPH (2 KT):0
Visibility: greater than 7 mile(s):0
Temperature: 50 F (10 C)
Dew Point: 50 F (10 C)
Relative Humidity: 100%
Pressure (altimeter): 29.91 in. Hg (1013 hPa)
ob: LIEO 170120Z 19002KT CAVOK 10/10 Q1013
cycle: 1

Station Type Date Time Source
LIEO TAF 2021/04/16 18:59 UTC NOAA

TAF
AMD LIEO 161756Z 1618/1718 VRB05KT 9999 SCT025
BECMG 1703/1706 02015KT
TEMPO 1712/1718 TSRA
BECMG 1716/1718 VRB05KT

Example: see airport list